Time;durP1;ratioP1;P1;durP2;ratioP2;P2;SDS_P1;SDS_P2;PMS_P1;PMS_P2;Temp;Humidity;BMP_temperature;BMP_pressure;BME280_temperature;BME280_humidity;BME280_pressure;Samples;Min_cycle;Max_cycle;Signal;HPM_P1;HPM_P2
2021/05/05 00:01:54;;;;;;;2.53;2.33;;;9.10;99.10;;;;;;4988345;28;20206;-80
2021/05/05 00:04:21;;;;;;;2.20;2.10;;;9.10;99.10;;;;;;4983381;28;20203;-79
2021/05/05 00:06:48;;;;;;;3.85;2.45;;;9.10;98.90;;;;;;4987499;28;20207;-79
2021/05/05 00:09:15;;;;;;;2.88;2.65;;;9.10;98.90;;;;;;4984290;28;20207;-80
2021/05/05 00:11:42;;;;;;;2.90;2.70;;;9.10;98.80;;;;;;4981046;28;20318;-79
2021/05/05 00:14:10;;;;;;;3.00;2.72;;;9.10;98.80;;;;;;4982003;28;20343;-80
2021/05/05 00:16:37;;;;;;;2.60;2.40;;;9.10;98.80;;;;;;4982437;28;20603;-80
2021/05/05 00:19:05;;;;;;;3.35;2.40;;;9.10;98.80;;;;;;4985822;28;20196;-80
2021/05/05 00:21:31;;;;;;;2.70;2.53;;;9.10;98.70;;;;;;4982210;28;20196;-80
2021/05/05 00:23:58;;;;;;;3.65;2.63;;;9.10;98.50;;;;;;4984925;28;20256;-79
2021/05/05 00:26:25;;;;;;;4.68;2.72;;;9.00;98.50;;;;;;4979931;28;20676;-79
2021/05/05 00:28:51;;;;;;;3.97;2.70;;;9.00;98.50;;;;;;4986348;28;20298;-79
2021/05/05 00:31:18;;;;;;;4.22;2.70;;;9.00;98.50;;;;;;4982021;28;20202;-79
2021/05/05 00:33:45;;;;;;;2.85;2.65;;;8.90;98.40;;;;;;4981816;28;20234;-80
2021/05/05 00:36:14;;;;;;;2.90;2.60;;;8.90;98.20;;;;;;4986382;28;20238;-79
2021/05/05 00:38:41;;;;;;;2.55;2.33;;;8.90;98.20;;;;;;4989045;28;20203;-80
2021/05/05 00:41:08;;;;;;;5.72;2.20;;;8.90;98.10;;;;;;4983871;28;20674;-80
2021/05/05 00:43:35;;;;;;;2.80;2.60;;;8.90;98.00;;;;;;4983548;28;20215;-79
2021/05/05 00:46:02;;;;;;;2.88;2.47;;;8.90;98.00;;;;;;4986770;28;20200;-79
2021/05/05 00:48:30;;;;;;;3.10;2.80;;;8.90;98.00;;;;;;4984949;28;20656;-79
2021/05/05 00:50:57;;;;;;;3.15;2.75;;;8.80;98.00;;;;;;4982843;28;20211;-79
2021/05/05 00:53:24;;;;;;;4.25;2.92;;;8.80;98.00;;;;;;4982997;28;20281;-79
2021/05/05 00:55:50;;;;;;;3.92;3.55;;;8.80;98.10;;;;;;4976734;28;20219;-79
2021/05/05 00:58:17;;;;;;;3.10;2.65;;;8.80;98.20;;;;;;4975189;28;20259;-79
2021/05/05 01:00:46;;;;;;;6.25;3.17;;;8.70;98.20;;;;;;4987829;28;20208;-79
2021/05/05 01:03:12;;;;;;;3.00;2.80;;;8.70;98.20;;;;;;4981824;28;20207;-80
2021/05/05 01:05:40;;;;;;;3.25;2.65;;;8.70;98.50;;;;;;4982005;28;20207;-80
2021/05/05 01:08:07;;;;;;;4.15;2.75;;;8.70;98.30;;;;;;4983335;28;20195;-80
2021/05/05 01:10:34;;;;;;;5.22;2.72;;;8.70;98.20;;;;;;4970268;28;20223;-79
2021/05/05 01:13:01;;;;;;;4.00;2.88;;;8.70;98.10;;;;;;4986184;28;20206;-79
2021/05/05 01:15:28;;;;;;;3.75;3.10;;;8.70;98.20;;;;;;4982082;28;20219;-79
2021/05/05 01:17:55;;;;;;;4.20;3.17;;;8.70;98.20;;;;;;4981857;28;20680;-79
2021/05/05 01:20:21;;;;;;;3.65;2.80;;;8.70;98.20;;;;;;4985075;28;20330;-79
2021/05/05 01:22:49;;;;;;;5.13;3.25;;;8.60;98.20;;;;;;4985932;28;20204;-79
2021/05/05 01:25:17;;;;;;;3.03;2.83;;;8.60;98.30;;;;;;4981109;28;20207;-80
2021/05/05 01:27:44;;;;;;;3.10;2.70;;;8.60;98.30;;;;;;4982098;28;20211;-79
2021/05/05 01:30:14;;;;;;;6.55;3.20;;;8.60;98.30;;;;;;4983696;28;21036;-80
2021/05/05 01:32:40;;;;;;;5.38;3.55;;;8.60;98.40;;;;;;4987435;28;20195;-80
2021/05/05 01:35:11;;;;;;;8.05;3.42;;;8.60;98.50;;;;;;4983548;28;20227;-80
2021/05/05 01:37:40;;;;;;;3.42;3.20;;;8.60;98.40;;;;;;4982407;28;20230;-79
2021/05/05 01:40:09;;;;;;;6.93;3.40;;;8.60;98.40;;;;;;4980720;28;20206;-79
2021/05/05 01:42:35;;;;;;;6.50;3.65;;;8.60;98.50;;;;;;4985257;28;20689;-79
2021/05/05 01:45:02;;;;;;;9.52;3.85;;;8.60;98.50;;;;;;4980888;28;20211;-80
2021/05/05 01:47:29;;;;;;;3.42;3.13;;;8.60;98.50;;;;;;4985151;28;20203;-79
2021/05/05 01:49:55;;;;;;;4.22;3.00;;;8.60;98.40;;;;;;4979737;28;20203;-80
2021/05/05 01:52:22;;;;;;;4.70;4.20;;;8.70;98.40;;;;;;4978840;28;20735;-81
2021/05/05 01:54:48;;;;;;;5.53;3.22;;;8.60;98.30;;;;;;4984072;28;20734;-80
2021/05/05 01:57:32;;;;;;;4.93;3.67;;;8.60;98.40;;;;;;4983346;28;20234;-80
2021/05/05 02:00:00;;;;;;;4.68;3.70;;;8.60;98.20;;;;;;4981839;28;20203;-80
2021/05/05 02:02:28;;;;;;;4.88;3.72;;;8.60;98.20;;;;;;4985652;28;20791;-80
2021/05/05 02:04:56;;;;;;;5.45;4.05;;;8.60;98.20;;;;;;4984697;28;20215;-80
2021/05/05 02:07:22;;;;;;;5.47;3.90;;;8.60;98.20;;;;;;4983352;28;20238;-80
2021/05/05 02:09:49;;;;;;;4.63;3.78;;;8.60;98.20;;;;;;4979604;28;20196;-80
2021/05/05 02:12:16;;;;;;;8.73;3.33;;;8.60;98.00;;;;;;4983987;28;20300;-80
2021/05/05 02:14:45;;;;;;;3.38;3.08;;;8.50;98.00;;;;;;4981097;28;20219;-80
2021/05/05 02:17:12;;;;;;;3.97;3.40;;;8.50;98.00;;;;;;4980506;28;20668;-80
2021/05/05 02:19:39;;;;;;;4.95;4.40;;;8.50;98.00;;;;;;4985887;28;20257;-80
2021/05/05 02:22:05;;;;;;;4.47;3.60;;;8.50;98.00;;;;;;4982904;28;20218;-80
2021/05/05 02:24:32;;;;;;;4.35;3.42;;;8.50;98.00;;;;;;4982575;28;20206;-79
2021/05/05 02:26:58;;;;;;;4.28;3.08;;;8.50;98.00;;;;;;4980071;28;20265;-80
2021/05/05 02:29:25;;;;;;;3.80;3.40;;;8.50;98.00;;;;;;4984779;28;20636;-80
2021/05/05 02:31:52;;;;;;;4.25;3.60;;;8.50;98.00;;;;;;4982896;28;20254;-80
2021/05/05 02:34:18;;;;;;;11.48;4.68;;;8.50;98.00;;;;;;4979737;28;20647;-80
2021/05/05 02:36:45;;;;;;;4.68;3.78;;;8.40;98.10;;;;;;4983261;28;20249;-80
2021/05/05 02:39:13;;;;;;;9.45;4.13;;;8.40;98.00;;;;;;4980618;28;20276;-80
2021/05/05 02:41:39;;;;;;;4.80;4.10;;;8.40;98.00;;;;;;4982009;28;20210;-80
2021/05/05 02:44:07;;;;;;;4.40;4.10;;;8.40;98.00;;;;;;4985026;28;20210;-80
2021/05/05 02:46:34;;;;;;;4.10;3.53;;;8.40;98.00;;;;;;4981643;28;20203;-80
2021/05/05 02:49:01;;;;;;;4.00;3.60;;;8.40;98.10;;;;;;4985565;28;20667;-80
2021/05/05 02:51:27;;;;;;;9.85;5.22;;;8.40;98.00;;;;;;4977430;28;20558;-79
2021/05/05 02:57:16;;;;;;;7.20;4.40;;;8.40;98.10;;;;;;4978800;28;20210;-80
2021/05/05 02:59:42;;;;;;;4.25;3.50;;;8.40;98.20;;;;;;4982870;28;20207;-80
2021/05/05 03:02:09;;;;;;;6.00;3.58;;;8.40;98.20;;;;;;4986319;28;20263;-80
2021/05/05 03:04:36;;;;;;;5.78;4.28;;;8.40;98.30;;;;;;4982943;28;20257;-80
2021/05/05 03:07:03;;;;;;;4.70;3.75;;;8.40;98.30;;;;;;4978429;28;20299;-80
2021/05/05 03:09:29;;;;;;;4.90;4.40;;;8.40;98.40;;;;;;4983926;28;20211;-80
2021/05/05 03:11:56;;;;;;;6.47;4.18;;;8.40;98.40;;;;;;4981383;28;20624;-80
2021/05/05 03:14:23;;;;;;;7.70;4.72;;;8.40;98.40;;;;;;4983373;28;20290;-80
2021/05/05 03:17:17;;;;;;;6.10;4.55;;;8.40;98.90;;;;;;4978257;28;20647;-80
2021/05/05 03:19:45;;;;;;;4.75;4.25;;;8.30;98.40;;;;;;4984645;28;20228;-80
2021/05/05 03:22:11;;;;;;;9.25;5.18;;;8.30;98.40;;;;;;4980222;28;20210;-80
2021/05/05 03:24:37;;;;;;;6.45;4.50;;;8.30;98.50;;;;;;4984203;28;20734;-80
2021/05/05 03:27:05;;;;;;;7.03;4.75;;;8.30;98.50;;;;;;4981630;28;20238;-80
2021/05/05 03:29:31;;;;;;;9.15;3.90;;;8.30;98.60;;;;;;4979332;28;20674;-80
2021/05/05 03:31:58;;;;;;;5.45;4.25;;;8.30;98.60;;;;;;4976706;28;20207;-79
2021/05/05 03:34:25;;;;;;;5.18;4.68;;;8.30;98.60;;;;;;4984922;28;20195;-80
2021/05/05 03:36:53;;;;;;;6.68;4.78;;;8.30;98.60;;;;;;4979691;28;20207;-80
2021/05/05 03:39:19;;;;;;;4.88;4.43;;;8.30;98.70;;;;;;4980358;28;21109;-80
2021/05/05 03:41:46;;;;;;;6.82;4.55;;;8.30;98.70;;;;;;4982126;28;20211;-80
2021/05/05 03:44:12;;;;;;;5.15;4.57;;;8.30;98.70;;;;;;4982521;28;20483;-80
2021/05/05 03:46:39;;;;;;;9.93;4.90;;;8.20;98.70;;;;;;4987477;28;20295;-80
2021/05/05 03:49:07;;;;;;;16.38;4.32;;;8.30;98.80;;;;;;4980021;28;20340;-79
2021/05/05 03:51:34;;;;;;;9.57;5.05;;;8.20;98.70;;;;;;4982853;28;20547;-80
2021/05/05 03:54:01;;;;;;;5.57;4.78;;;8.20;98.70;;;;;;4980249;28;20212;-80
2021/05/05 03:56:27;;;;;;;4.88;4.47;;;8.20;98.80;;;;;;4979910;28;20946;-81
2021/05/05 03:58:54;;;;;;;11.30;4.63;;;8.20;98.80;;;;;;4984006;28;20196;-80
2021/05/05 04:01:21;;;;;;;10.88;5.05;;;8.20;98.80;;;;;;4985503;28;20195;-80
2021/05/05 04:03:47;;;;;;;5.65;5.05;;;8.20;98.80;;;;;;4978659;28;20243;-80
2021/05/05 04:06:14;;;;;;;6.70;4.30;;;8.20;98.80;;;;;;4980743;28;20234;-80
2021/05/05 04:08:40;;;;;;;11.27;5.10;;;8.20;98.80;;;;;;4976415;28;20211;-80
2021/05/05 04:11:07;;;;;;;8.23;4.70;;;8.20;98.80;;;;;;4979610;28;20266;-80
2021/05/05 04:13:34;;;;;;;6.63;4.80;;;8.10;98.80;;;;;;4983011;28;20262;-80
2021/05/05 04:16:00;;;;;;;5.03;4.63;;;8.10;98.80;;;;;;4975518;28;20643;-81
2021/05/05 04:18:27;;;;;;;5.20;4.70;;;8.20;98.90;;;;;;4982129;28;20239;-80
2021/05/05 04:20:55;;;;;;;10.43;5.05;;;8.20;99.00;;;;;;4984131;28;20239;-80
2021/05/05 04:23:21;;;;;;;6.82;5.07;;;8.20;99.10;;;;;;4979434;28;20613;-79
2021/05/05 04:25:48;;;;;;;6.88;5.53;;;8.20;99.20;;;;;;4981395;28;20215;-80
2021/05/05 04:28:15;;;;;;;6.45;5.80;;;8.20;99.30;;;;;;4981802;28;20196;-80
2021/05/05 04:30:41;;;;;;;12.70;7.43;;;8.20;99.40;;;;;;4982014;28;20616;-80
2021/05/05 04:33:08;;;;;;;7.07;6.13;;;8.20;99.50;;;;;;4985552;28;20211;-80
2021/05/05 04:35:34;;;;;;;7.60;6.85;;;8.30;99.50;;;;;;4981808;28;20219;-80
2021/05/05 04:38:01;;;;;;;6.50;5.78;;;8.30;99.60;;;;;;4986034;28;20655;-80
2021/05/05 04:40:27;;;;;;;8.05;6.03;;;8.30;99.60;;;;;;4984180;28;20207;-80
2021/05/05 04:42:55;;;;;;;8.57;6.13;;;8.30;99.60;;;;;;4979056;28;20711;-80
2021/05/05 04:45:22;;;;;;;10.15;6.63;;;8.30;99.60;;;;;;4986233;28;20207;-80
2021/05/05 04:47:49;;;;;;;6.68;6.07;;;8.30;99.70;;;;;;4988428;28;20214;-80
2021/05/05 04:50:15;;;;;;;7.03;4.78;;;8.30;99.60;;;;;;4986181;28;20203;-80
2021/05/05 04:52:41;;;;;;;7.82;6.80;;;8.40;99.80;;;;;;4984479;28;20214;-80
2021/05/05 04:55:08;;;;;;;7.32;6.55;;;8.40;99.80;;;;;;4978346;28;20223;-80
2021/05/05 04:57:35;;;;;;;7.07;5.50;;;8.40;99.80;;;;;;4982338;28;20223;-80
2021/05/05 05:00:02;;;;;;;7.65;6.07;;;8.40;99.70;;;;;;4986596;28;20247;-80
2021/05/05 05:02:29;;;;;;;7.70;5.57;;;8.40;99.90;;;;;;4982657;28;20200;-80
2021/05/05 05:04:56;;;;;;;12.98;6.03;;;8.40;99.90;;;;;;4981162;28;20664;-79
2021/05/05 05:07:23;;;;;;;6.00;4.72;;;8.40;99.90;;;;;;4986029;28;20202;-80
2021/05/05 05:09:50;;;;;;;8.88;5.10;;;8.40;99.90;;;;;;4981238;28;20195;-80
2021/05/05 05:12:16;;;;;;;6.78;4.72;;;8.50;99.90;;;;;;4981368;28;20225;-80
2021/05/05 05:14:42;;;;;;;8.45;5.20;;;8.50;99.90;;;;;;4982309;28;20196;-80
2021/05/05 05:17:09;;;;;;;13.63;5.60;;;8.50;99.90;;;;;;4988715;28;20213;-80
2021/05/05 05:19:36;;;;;;;10.55;5.80;;;8.50;99.90;;;;;;4980480;28;20223;-80
2021/05/05 05:22:03;;;;;;;9.15;6.28;;;8.60;99.90;;;;;;4981630;28;20297;-80
2021/05/05 05:24:30;;;;;;;7.25;5.10;;;8.60;99.90;;;;;;4984644;28;20202;-81
2021/05/05 05:26:57;;;;;;;7.38;5.47;;;8.70;99.90;;;;;;4981387;28;20220;-81
2021/05/05 05:29:23;;;;;;;7.68;5.93;;;8.70;99.90;;;;;;4984917;28;20210;-81
2021/05/05 05:31:50;;;;;;;16.27;8.98;;;8.70;99.90;;;;;;4982853;28;20207;-81
2021/05/05 05:34:17;;;;;;;20.25;9.38;;;8.80;99.90;;;;;;4986817;28;21231;-81
2021/05/05 05:36:46;;;;;;;13.10;10.00;;;8.80;99.90;;;;;;4980275;28;20231;-81
2021/05/05 05:39:14;;;;;;;11.43;7.90;;;8.80;99.90;;;;;;4985197;28;20569;-81
2021/05/05 05:41:40;;;;;;;12.82;8.77;;;8.80;99.90;;;;;;4981746;28;20231;-81
2021/05/05 05:44:08;;;;;;;11.70;6.22;;;8.80;99.90;;;;;;4983700;28;20217;-81
2021/05/05 05:46:38;;;;;;;16.23;6.90;;;8.90;99.90;;;;;;4983949;28;20203;-81
2021/05/05 05:49:06;;;;;;;9.55;6.65;;;8.90;99.90;;;;;;4982945;28;20202;-81
2021/05/05 05:51:42;;;;;;;18.75;7.75;;;9.00;99.90;;;;;;4984655;28;20247;-81
2021/05/05 05:54:10;;;;;;;12.07;6.82;;;9.00;99.90;;;;;;4984140;28;20286;-81
2021/05/05 05:56:36;;;;;;;8.00;6.13;;;9.00;99.90;;;;;;4982151;28;20581;-81
2021/05/05 05:59:04;;;;;;;7.60;5.20;;;9.10;99.90;;;;;;4984643;28;20262;-82
2021/05/05 06:01:30;;;;;;;9.32;5.53;;;9.10;99.90;;;;;;4975856;28;20208;-82
2021/05/05 06:03:56;;;;;;;14.60;6.05;;;9.10;99.90;;;;;;4975499;28;20214;-82
2021/05/05 06:06:23;;;;;;;11.10;5.53;;;9.10;99.90;;;;;;4983231;28;20682;-82
2021/05/05 06:08:49;;;;;;;7.57;6.18;;;9.10;99.90;;;;;;4978445;28;20200;-82
2021/05/05 06:11:17;;;;;;;8.50;5.65;;;9.10;99.90;;;;;;4977914;28;20246;-82
2021/05/05 06:13:43;;;;;;;8.00;5.90;;;9.20;99.90;;;;;;4977701;28;20188;-82
2021/05/05 06:16:09;;;;;;;10.05;6.30;;;9.20;99.90;;;;;;4988757;28;20235;-81
2021/05/05 06:18:36;;;;;;;8.20;5.57;;;9.30;99.90;;;;;;4978642;28;20706;-81
2021/05/05 06:21:03;;;;;;;9.63;5.80;;;9.30;99.90;;;;;;4971479;28;20227;-82
2021/05/05 06:23:30;;;;;;;7.53;5.88;;;9.40;99.90;;;;;;4984588;28;20206;-82
2021/05/05 06:25:56;;;;;;;7.40;6.03;;;9.40;99.90;;;;;;4975819;28;20211;-82
2021/05/05 06:28:24;;;;;;;10.85;5.75;;;9.50;99.90;;;;;;4985342;28;20210;-81
2021/05/05 06:30:51;;;;;;;6.78;4.43;;;9.50;99.90;;;;;;4983883;28;20613;-81
2021/05/05 06:33:18;;;;;;;7.93;4.88;;;9.60;99.90;;;;;;4979113;28;20294;-82
2021/05/05 06:35:44;;;;;;;5.57;4.88;;;9.70;99.90;;;;;;4971678;28;20759;-81
2021/05/05 06:38:11;;;;;;;9.90;4.97;;;9.80;99.90;;;;;;4984076;28;20660;-82
2021/05/05 06:40:37;;;;;;;3.60;3.30;;;9.80;99.90;;;;;;4980973;28;20608;-82
2021/05/05 06:43:03;;;;;;;4.63;3.40;;;9.80;99.10;;;;;;4975684;28;20227;-81
2021/05/05 06:45:31;;;;;;;4.72;4.03;;;9.80;98.90;;;;;;4976568;28;20200;-81
2021/05/05 06:47:57;;;;;;;5.85;3.70;;;9.80;99.00;;;;;;4982643;28;20207;-81
2021/05/05 06:50:25;;;;;;;4.53;3.63;;;9.80;98.50;;;;;;4982471;28;20210;-82
2021/05/05 06:52:51;;;;;;;5.45;3.75;;;9.80;98.10;;;;;;4982380;28;20205;-81
2021/05/05 06:55:18;;;;;;;4.53;4.00;;;9.80;98.00;;;;;;4979000;28;20314;-81
2021/05/05 06:57:45;;;;;;;5.03;4.60;;;9.70;98.00;;;;;;4982878;28;20294;-81
2021/05/05 07:00:11;;;;;;;5.53;4.32;;;9.70;97.90;;;;;;4988038;28;20207;-81
2021/05/05 07:02:39;;;;;;;4.85;4.35;;;9.70;98.00;;;;;;4969068;28;20263;-82
2021/05/05 07:05:06;;;;;;;5.05;4.30;;;9.70;98.10;;;;;;4976855;28;20208;-82
2021/05/05 07:07:33;;;;;;;5.70;5.03;;;9.70;98.10;;;;;;4984466;28;20237;-81
2021/05/05 07:09:59;;;;;;;5.20;4.15;;;9.60;98.30;;;;;;4986122;28;20332;-80
2021/05/05 07:12:26;;;;;;;7.60;4.50;;;9.60;98.40;;;;;;4982136;28;20203;-81
2021/05/05 07:14:53;;;;;;;11.15;5.60;;;9.60;98.80;;;;;;4981946;28;20288;-81
2021/05/05 07:17:19;;;;;;;9.02;6.43;;;9.60;99.00;;;;;;4982403;28;20224;-80
2021/05/05 07:19:46;;;;;;;10.80;5.05;;;9.60;98.80;;;;;;4984676;28;20239;-80
2021/05/05 07:22:13;;;;;;;5.97;5.45;;;9.60;98.90;;;;;;4983224;28;20578;-80
2021/05/05 07:24:39;;;;;;;8.18;5.07;;;9.50;99.10;;;;;;4985362;28;20321;-78
2021/05/05 07:27:06;;;;;;;6.45;4.38;;;9.40;99.30;;;;;;4976108;28;20204;-78
2021/05/05 07:29:33;;;;;;;4.60;4.10;;;9.40;99.90;;;;;;4974062;28;20215;-78
2021/05/05 07:31:59;;;;;;;6.85;4.40;;;9.30;99.90;;;;;;4967408;28;20273;-78
2021/05/05 07:34:26;;;;;;;7.68;4.85;;;9.30;99.90;;;;;;4975726;28;20199;-77
2021/05/05 07:36:58;;;;;;;4.85;4.55;;;9.40;99.90;;;;;;4975296;28;20265;-77
2021/05/05 07:39:45;;;;;;;10.20;4.65;;;9.30;99.90;;;;;;4979076;28;20206;-77
2021/05/05 07:45:23;;;;;;;6.60;4.10;;;9.30;99.90;;;;;;4975862;28;20204;-77
2021/05/05 07:47:51;;;;;;;3.80;3.53;;;9.30;99.90;;;;;;4979965;28;20197;-77
2021/05/05 07:50:18;;;;;;;5.15;4.15;;;9.30;99.90;;;;;;4981895;28;20240;-77
2021/05/05 07:52:45;;;;;;;5.20;4.00;;;9.30;99.90;;;;;;4980646;28;20199;-78
2021/05/05 07:55:12;;;;;;;3.60;3.40;;;9.20;99.90;;;;;;4978587;28;20226;-77
2021/05/05 07:57:42;;;;;;;2.70;2.50;;;9.20;99.90;;;;;;4974688;28;20660;-78
2021/05/05 08:00:10;;;;;;;3.40;3.10;;;9.20;99.90;;;;;;4979027;28;20306;-77
2021/05/05 08:02:36;;;;;;;2.95;2.80;;;9.10;99.90;;;;;;4975621;28;20286;-77
2021/05/05 08:05:04;;;;;;;3.13;2.92;;;9.20;99.90;;;;;;4985929;28;20664;-77
2021/05/05 08:07:30;;;;;;;3.55;3.10;;;9.20;99.90;;;;;;4982898;28;20203;-77
2021/05/05 08:09:57;;;;;;;3.65;3.35;;;9.20;99.90;;;;;;4983865;28;20203;-77
2021/05/05 08:12:24;;;;;;;3.45;3.22;;;9.20;99.90;;;;;;4979629;28;20231;-77
2021/05/05 08:14:51;;;;;;;5.63;3.55;;;9.20;99.90;;;;;;4983283;28;20665;-77
2021/05/05 08:17:18;;;;;;;2.95;2.72;;;9.20;99.90;;;;;;4987250;28;20549;-78
2021/05/05 08:19:44;;;;;;;3.60;3.40;;;9.30;99.90;;;;;;4979355;28;20234;-78
2021/05/05 08:22:11;;;;;;;4.22;3.40;;;9.40;99.90;;;;;;4977054;28;20258;-79
2021/05/05 08:24:38;;;;;;;4.32;3.90;;;9.50;99.90;;;;;;4980375;28;20205;-79
2021/05/05 08:27:06;;;;;;;4.43;4.03;;;9.60;99.90;;;;;;4977364;28;20226;-79
2021/05/05 08:29:33;;;;;;;5.97;4.00;;;9.80;99.90;;;;;;4978485;28;20227;-79
2021/05/05 08:32:00;;;;;;;4.40;3.70;;;9.90;99.90;;;;;;4982992;28;20203;-80
2021/05/05 08:34:26;;;;;;;4.97;3.50;;;10.00;99.90;;;;;;4981012;28;20210;-80
2021/05/05 08:36:53;;;;;;;4.80;3.63;;;10.10;99.90;;;;;;4981030;28;20232;-81
2021/05/05 08:39:19;;;;;;;3.58;3.03;;;10.20;99.90;;;;;;4981138;28;20613;-80
2021/05/05 08:41:46;;;;;;;4.68;3.88;;;10.30;99.90;;;;;;4980198;28;20209;-81
2021/05/05 08:44:15;;;;;;;4.15;3.85;;;10.40;99.90;;;;;;4982221;28;20274;-81
2021/05/05 08:46:43;;;;;;;6.47;3.53;;;10.50;99.90;;;;;;4976131;28;20217;-81
2021/05/05 08:49:11;;;;;;;4.95;4.40;;;10.60;99.90;;;;;;4976311;28;20206;-81
2021/05/05 08:51:38;;;;;;;8.07;4.10;;;10.80;99.90;;;;;;4981314;28;20208;-82
2021/05/05 08:54:05;;;;;;;10.77;4.05;;;10.90;99.90;;;;;;4980872;28;20206;-82
2021/05/05 08:56:35;;;;;;;6.03;4.22;;;11.00;99.90;;;;;;4980723;28;20379;-82
2021/05/05 08:59:01;;;;;;;8.00;4.53;;;11.10;99.90;;;;;;4975963;28;20426;-82
2021/05/05 09:01:28;;;;;;;6.82;3.80;;;11.20;99.90;;;;;;4973978;28;20496;-82
2021/05/05 09:03:55;;;;;;;4.65;3.15;;;11.30;99.90;;;;;;4978217;28;20613;-82
2021/05/05 09:06:46;;;;;;;3.83;3.42;;;11.40;99.90;;;;;;4981000;28;20201;-82
2021/05/05 09:09:29;;;;;;;4.18;3.42;;;11.40;99.90;;;;;;4977918;28;20612;-82
2021/05/05 09:11:55;;;;;;;9.52;3.70;;;11.30;99.90;;;;;;4983526;28;20713;-82
2021/05/05 09:14:22;;;;;;;5.63;3.25;;;11.30;99.70;;;;;;4977669;28;20210;-82
2021/05/05 09:16:49;;;;;;;3.83;3.47;;;11.30;99.40;;;;;;4973542;28;20233;-82
2021/05/05 09:19:15;;;;;;;6.95;4.15;;;11.20;99.40;;;;;;4976623;28;20237;-82
2021/05/05 09:21:43;;;;;;;4.68;4.07;;;11.20;99.50;;;;;;4978913;28;20206;-82
2021/05/05 09:24:33;;;;;;;4.25;3.83;;;11.10;99.50;;;;;;4983125;28;20294;-81
2021/05/05 09:27:02;;;;;;;4.40;4.00;;;11.20;99.50;;;;;;4980677;28;20253;-81
2021/05/05 09:29:44;;;;;;;6.72;3.95;;;11.30;99.60;;;;;;4982402;28;20204;-81
2021/05/05 09:32:12;;;;;;;7.72;4.22;;;11.40;99.60;;;;;;4977835;28;20279;-81
2021/05/05 09:34:40;;;;;;;4.63;4.10;;;11.40;99.40;;;;;;4977579;28;20691;-82
2021/05/05 09:37:08;;;;;;;8.40;4.38;;;11.40;99.20;;;;;;4978637;28;20335;-82
2021/05/05 09:39:38;;;;;;;4.60;3.97;;;11.50;99.10;;;;;;4978686;28;20223;-82
2021/05/05 09:42:24;;;;;;;6.90;3.75;;;11.50;98.00;;;;;;4981613;28;20298;-82
2021/05/05 09:44:55;;;;;;;6.35;4.13;;;11.60;98.10;;;;;;4978421;28;20665;-82
2021/05/05 09:47:22;;;;;;;4.93;4.43;;;11.70;98.20;;;;;;4982018;28;20240;-82
2021/05/05 09:49:49;;;;;;;5.03;3.95;;;11.90;98.30;;;;;;4977807;28;20218;-83
2021/05/05 09:52:24;;;;;;;6.97;4.13;;;12.00;98.40;;;;;;4977351;28;20269;-82
2021/05/05 09:54:55;;;;;;;10.52;3.60;;;12.10;98.60;;;;;;4975449;28;20209;-83
2021/05/05 09:57:24;;;;;;;5.80;3.92;;;12.30;98.30;;;;;;4974806;28;20233;-83
2021/05/05 10:00:04;;;;;;;4.07;3.58;;;12.30;97.40;;;;;;4980301;28;20211;-82
2021/05/05 10:02:41;;;;;;;6.32;4.10;;;12.30;97.20;;;;;;4977578;28;20206;-83
2021/05/05 10:05:10;;;;;;;5.95;4.40;;;12.40;97.30;;;;;;4976036;28;20231;-82
2021/05/05 10:07:56;;;;;;;4.90;4.43;;;12.60;97.50;;;;;;4976285;28;20207;-84
2021/05/05 10:10:25;;;;;;;5.85;3.75;;;12.90;97.50;;;;;;4978334;28;20266;-83
2021/05/05 10:12:52;;;;;;;4.25;3.85;;;12.90;96.80;;;;;;4973382;28;20254;-83
2021/05/05 10:15:20;;;;;;;3.97;3.17;;;12.90;96.60;;;;;;4974858;28;20199;-83
2021/05/05 10:17:49;;;;;;;11.02;3.65;;;12.80;95.60;;;;;;4973994;28;20200;-83
2021/05/05 10:20:18;;;;;;;5.30;3.17;;;12.70;95.60;;;;;;4977740;28;20603;-83
2021/05/05 10:22:45;;;;;;;5.38;3.53;;;12.60;95.20;;;;;;4980318;28;20662;-82
2021/05/05 10:25:16;;;;;;;6.20;3.75;;;12.50;94.30;;;;;;4975216;28;20207;-83
2021/05/05 10:27:43;;;;;;;4.63;2.88;;;12.50;94.40;;;;;;4975585;28;20204;-82
2021/05/05 10:30:12;;;;;;;3.23;3.03;;;12.60;94.90;;;;;;4982258;28;20215;-83
2021/05/05 10:32:41;;;;;;;5.53;3.40;;;12.80;95.10;;;;;;4973183;28;20951;-83
2021/05/05 10:35:13;;;;;;;6.82;3.38;;;13.10;95.80;;;;;;4980254;28;20781;-82
2021/05/05 10:37:44;;;;;;;4.23;3.10;;;13.30;95.80;;;;;;4977888;28;20199;-82
2021/05/05 10:40:19;;;;;;;4.60;3.30;;;13.50;95.40;;;;;;4974751;28;20467;-82
2021/05/05 10:42:56;;;;;;;4.57;2.57;;;13.70;95.00;;;;;;4976929;28;20221;-82
2021/05/05 10:45:28;;;;;;;6.30;3.40;;;13.80;95.30;;;;;;4973225;28;20958;-83
2021/05/05 10:48:10;;;;;;;8.03;4.03;;;13.90;95.10;;;;;;4976247;28;21066;-82
2021/05/05 10:53:51;;;;;;;6.27;3.43;;;13.80;94.90;;;;;;5099531;27;20546;-59
2021/05/05 10:56:22;;;;;;;6.17;3.40;;;13.70;94.00;;;;;;5079438;28;20835;-59
2021/05/05 10:58:58;;;;;;;16.85;5.05;;;13.60;94.30;;;;;;5079334;28;20464;-59
2021/05/05 11:01:37;;;;;;;3.63;3.33;;;13.60;94.40;;;;;;5074943;28;20216;-60
2021/05/05 11:04:04;;;;;;;8.90;3.70;;;13.60;94.50;;;;;;5077947;28;20542;-60
2021/05/05 11:06:58;;;;;;;7.63;3.23;;;13.70;94.30;;;;;;5079758;28;20483;-59
2021/05/05 11:09:45;;;;;;;4.07;3.67;;;13.70;94.20;;;;;;5076048;28;20469;-60
2021/05/05 11:12:46;;;;;;;3.78;3.35;;;13.70;93.70;;;;;;5077535;28;20607;-65
2021/05/05 11:15:14;;;;;;;4.50;3.60;;;13.80;93.40;;;;;;5073182;28;20310;-65
2021/05/05 11:17:40;;;;;;;4.90;3.20;;;13.90;93.80;;;;;;5076337;28;20469;-65
2021/05/05 11:20:08;;;;;;;8.30;3.50;;;14.00;94.00;;;;;;5072931;28;20971;-66
2021/05/05 11:22:58;;;;;;;5.80;2.83;;;14.00;93.10;;;;;;5077616;28;20479;-65
2021/05/05 11:25:27;;;;;;;2.87;2.67;;;13.80;92.80;;;;;;5057284;28;20469;-66
2021/05/05 11:27:56;;;;;;;8.00;3.33;;;13.80;93.20;;;;;;5074097;28;20646;-65
2021/05/05 11:30:41;;;;;;;11.03;3.20;;;13.80;93.40;;;;;;5075080;28;20458;-65
2021/05/05 11:33:11;;;;;;;5.60;3.17;;;13.90;93.30;;;;;;5081219;28;20848;-65
2021/05/05 11:35:39;;;;;;;4.47;2.90;;;14.00;93.30;;;;;;5079910;28;20472;-65
2021/05/05 11:38:07;;;;;;;8.37;3.53;;;14.20;93.50;;;;;;5079538;28;20471;-66
2021/05/05 11:40:34;;;;;;;7.00;2.83;;;14.40;93.70;;;;;;5077944;28;21277;-65
2021/05/05 11:43:14;;;;;;;6.90;3.00;;;14.50;92.30;;;;;;5079792;28;20465;-65
2021/05/05 11:45:47;;;;;;;4.53;2.90;;;14.70;92.50;;;;;;5077381;28;20458;-66
2021/05/05 11:48:23;;;;;;;6.50;3.20;;;14.80;92.50;;;;;;5083099;28;20458;-66
2021/05/05 11:50:49;;;;;;;10.13;3.33;;;14.90;91.60;;;;;;5083611;28;20469;-65
2021/05/05 11:53:29;;;;;;;6.50;3.20;;;14.80;90.60;;;;;;5082902;28;20491;-66
2021/05/05 11:55:56;;;;;;;6.13;3.83;;;14.90;90.50;;;;;;5082880;28;20477;-65
2021/05/05 11:58:24;;;;;;;3.90;2.80;;;15.00;91.50;;;;;;5083531;28;20524;-65
2021/05/05 12:00:51;;;;;;;3.23;2.27;;;15.00;92.00;;;;;;5083784;28;20468;-65
2021/05/05 12:03:23;;;;;;;6.53;2.73;;;15.00;91.90;;;;;;5079551;28;20468;-65
2021/05/05 12:05:49;;;;;;;4.27;3.20;;;14.90;91.40;;;;;;5070241;28;20852;-65
2021/05/05 12:08:16;;;;;;;2.73;2.53;;;14.90;90.60;;;;;;5069998;28;20465;-65
2021/05/05 12:10:45;;;;;;;3.97;2.50;;;14.40;88.40;;;;;;5068387;28;20462;-65
2021/05/05 12:13:14;;;;;;;1.93;1.60;;;13.90;89.50;;;;;;5070177;28;20483;-65
2021/05/05 12:15:47;;;;;;;4.30;2.33;;;13.50;90.60;;;;;;5069427;28;20532;-59
2021/05/05 12:18:17;;;;;;;3.47;2.10;;;13.00;91.50;;;;;;5070939;28;20465;-60
2021/05/05 12:20:43;;;;;;;2.03;1.83;;;12.70;91.90;;;;;;5070401;28;20450;-59
2021/05/05 12:23:09;;;;;;;2.60;1.90;;;12.40;92.20;;;;;;5068607;28;20224;-59
2021/05/05 12:25:36;;;;;;;3.20;2.40;;;12.30;93.00;;;;;;5069855;28;20199;-61
2021/05/05 12:28:09;;;;;;;2.10;1.90;;;12.10;93.00;;;;;;5069756;28;20238;-61
2021/05/05 12:30:50;;;;;;;3.13;2.30;;;11.90;93.20;;;;;;5069533;28;20206;-60
2021/05/05 12:33:19;;;;;;;6.22;2.45;;;11.90;94.10;;;;;;5065894;28;20276;-61
2021/05/05 12:35:48;;;;;;;5.65;2.63;;;11.80;94.30;;;;;;5068117;28;20201;-59
2021/05/05 12:38:16;;;;;;;4.90;3.03;;;11.70;94.70;;;;;;5069644;28;20207;-60
2021/05/05 12:40:43;;;;;;;5.25;3.08;;;11.60;95.30;;;;;;5068454;28;20200;-61
2021/05/05 12:43:15;;;;;;;8.45;3.67;;;11.50;95.10;;;;;;5060165;28;20642;-59
2021/05/05 12:45:42;;;;;;;3.22;2.92;;;11.50;95.20;;;;;;5069159;28;20578;-60
2021/05/05 12:48:10;;;;;;;9.27;3.00;;;11.50;95.60;;;;;;5065836;28;20539;-59
2021/05/05 12:50:41;;;;;;;3.28;2.97;;;11.70;95.90;;;;;;5066441;28;20205;-59
2021/05/05 12:53:10;;;;;;;4.78;3.42;;;11.80;96.20;;;;;;5066511;28;20242;-61
2021/05/05 12:55:39;;;;;;;8.82;2.90;;;12.00;96.20;;;;;;5067742;28;20204;-60
2021/05/05 12:58:08;;;;;;;4.97;3.45;;;12.20;95.90;;;;;;5061685;28;20209;-59
2021/05/05 13:00:37;;;;;;;3.38;2.58;;;12.30;95.60;;;;;;5069465;28;20197;-59
2021/05/05 13:03:06;;;;;;;4.10;3.78;;;12.60;95.10;;;;;;5053752;28;20658;-60
2021/05/05 13:05:54;;;;;;;4.28;3.80;;;12.70;94.50;;;;;;5062267;28;20230;-60
2021/05/05 13:08:33;;;;;;;4.25;2.53;;;13.00;94.70;;;;;;5062730;28;20208;-60
2021/05/05 13:11:02;;;;;;;4.35;3.38;;;13.20;94.40;;;;;;5055343;28;20215;-58